sensor_id;sensor_type;location;lat;lon;timestamp;temperature;humidity
7792;DHT22;3940;49.892;10.886;2022-08-05T00:01:23;24.10;99.90
7792;DHT22;3940;49.892;10.886;2022-08-05T00:04:08;24.00;99.90
7792;DHT22;3940;49.892;10.886;2022-08-05T00:06:52;24.00;99.90
7792;DHT22;3940;49.892;10.886;2022-08-05T00:09:37;24.10;99.90
7792;DHT22;3940;49.892;10.886;2022-08-05T00:12:21;24.10;99.90
7792;DHT22;3940;49.892;10.886;2022-08-05T00:15:07;24.10;99.90
7792;DHT22;3940;49.892;10.886;2022-08-05T00:17:52;24.00;99.90
7792;DHT22;3940;49.892;10.886;2022-08-05T00:20:37;24.10;99.90
7792;DHT22;3940;49.892;10.886;2022-08-05T00:23:21;24.00;99.90
7792;DHT22;3940;49.892;10.886;2022-08-05T00:26:06;24.10;99.90
7792;DHT22;3940;49.892;10.886;2022-08-05T00:28:50;23.90;99.90
7792;DHT22;3940;49.892;10.886;2022-08-05T00:31:35;23.80;99.90
7792;DHT22;3940;49.892;10.886;2022-08-05T00:34:20;23.70;99.90
7792;DHT22;3940;49.892;10.886;2022-08-05T00:37:04;23.60;99.90
7792;DHT22;3940;49.892;10.886;2022-08-05T00:39:49;23.60;99.90
7792;DHT22;3940;49.892;10.886;2022-08-05T00:42:36;23.70;99.90
7792;DHT22;3940;49.892;10.886;2022-08-05T00:45:20;23.70;99.90
7792;DHT22;3940;49.892;10.886;2022-08-05T00:48:06;23.80;99.90
7792;DHT22;3940;49.892;10.886;2022-08-05T00:50:52;23.80;99.90
7792;DHT22;3940;49.892;10.886;2022-08-05T00:53:36;23.90;99.90
7792;DHT22;3940;49.892;10.886;2022-08-05T00:56:21;23.70;99.90
7792;DHT22;3940;49.892;10.886;2022-08-05T00:59:05;23.70;99.90
7792;DHT22;3940;49.892;10.886;2022-08-05T01:01:51;23.80;99.90
7792;DHT22;3940;49.892;10.886;2022-08-05T01:04:36;23.80;99.90
7792;DHT22;3940;49.892;10.886;2022-08-05T01:07:20;23.80;99.90
7792;DHT22;3940;49.892;10.886;2022-08-05T01:10:06;23.70;99.90
7792;DHT22;3940;49.892;10.886;2022-08-05T01:12:55;23.80;99.90
7792;DHT22;3940;49.892;10.886;2022-08-05T01:15:45;23.80;99.90
7792;DHT22;3940;49.892;10.886;2022-08-05T01:18:34;23.80;99.90
7792;DHT22;3940;49.892;10.886;2022-08-05T01:21:48;23.80;99.90
7792;DHT22;3940;49.892;10.886;2022-08-05T01:25:01;23.80;99.90
7792;DHT22;3940;49.892;10.886;2022-08-05T01:28:12;23.70;99.90
7792;DHT22;3940;49.892;10.886;2022-08-05T01:31:06;23.80;99.90
7792;DHT22;3940;49.892;10.886;2022-08-05T01:33:59;23.80;99.90
7792;DHT22;3940;49.892;10.886;2022-08-05T01:37:04;23.70;99.90
7792;DHT22;3940;49.892;10.886;2022-08-05T01:39:51;23.80;99.90
7792;DHT22;3940;49.892;10.886;2022-08-05T01:42:39;23.90;99.90
7792;DHT22;3940;49.892;10.886;2022-08-05T01:45:25;23.90;99.90
7792;DHT22;3940;49.892;10.886;2022-08-05T01:48:12;23.90;99.90
7792;DHT22;3940;49.892;10.886;2022-08-05T01:50:56;23.90;99.90
7792;DHT22;3940;49.892;10.886;2022-08-05T01:53:43;23.80;99.90
7792;DHT22;3940;49.892;10.886;2022-08-05T01:56:32;23.70;99.90
7792;DHT22;3940;49.892;10.886;2022-08-05T01:59:20;23.60;99.90
7792;DHT22;3940;49.892;10.886;2022-08-05T02:02:07;23.60;99.90
7792;DHT22;3940;49.892;10.886;2022-08-05T02:04:54;23.70;99.90
7792;DHT22;3940;49.892;10.886;2022-08-05T02:07:40;23.80;99.90
7792;DHT22;3940;49.892;10.886;2022-08-05T02:10:33;24.00;99.90
7792;DHT22;3940;49.892;10.886;2022-08-05T02:13:26;24.10;99.90
7792;DHT22;3940;49.892;10.886;2022-08-05T02:16:20;24.20;99.90
7792;DHT22;3940;49.892;10.886;2022-08-05T02:19:13;24.20;99.90
7792;DHT22;3940;49.892;10.886;2022-08-05T02:22:17;24.10;99.90
7792;DHT22;3940;49.892;10.886;2022-08-05T02:25:07;24.20;99.90
7792;DHT22;3940;49.892;10.886;2022-08-05T02:27:55;24.00;99.90
7792;DHT22;3940;49.892;10.886;2022-08-05T02:30:47;23.80;99.90
7792;DHT22;3940;49.892;10.886;2022-08-05T02:33:36;23.70;99.90
7792;DHT22;3940;49.892;10.886;2022-08-05T02:36:24;23.70;99.90
7792;DHT22;3940;49.892;10.886;2022-08-05T02:39:09;23.50;99.90
7792;DHT22;3940;49.892;10.886;2022-08-05T02:41:55;23.50;99.90
7792;DHT22;3940;49.892;10.886;2022-08-05T02:44:42;23.70;99.90
7792;DHT22;3940;49.892;10.886;2022-08-05T02:47:30;23.70;99.90
7792;DHT22;3940;49.892;10.886;2022-08-05T02:50:16;23.70;99.90
7792;DHT22;3940;49.892;10.886;2022-08-05T02:53:02;23.70;99.90
7792;DHT22;3940;49.892;10.886;2022-08-05T02:55:49;23.90;99.90
7792;DHT22;3940;49.892;10.886;2022-08-05T02:58:35;23.90;99.90
7792;DHT22;3940;49.892;10.886;2022-08-05T03:01:23;23.80;99.90
7792;DHT22;3940;49.892;10.886;2022-08-05T03:04:10;23.70;99.90
7792;DHT22;3940;49.892;10.886;2022-08-05T03:06:57;23.70;99.90
7792;DHT22;3940;49.892;10.886;2022-08-05T03:09:42;23.80;99.90
7792;DHT22;3940;49.892;10.886;2022-08-05T03:12:29;23.90;99.90
7792;DHT22;3940;49.892;10.886;2022-08-05T03:15:14;24.00;99.90
7792;DHT22;3940;49.892;10.886;2022-08-05T03:18:00;24.00;99.90
7792;DHT22;3940;49.892;10.886;2022-08-05T03:20:45;24.20;99.90
7792;DHT22;3940;49.892;10.886;2022-08-05T03:23:29;24.20;99.90
7792;DHT22;3940;49.892;10.886;2022-08-05T03:26:14;24.30;99.90
7792;DHT22;3940;49.892;10.886;2022-08-05T03:28:59;24.40;99.90
7792;DHT22;3940;49.892;10.886;2022-08-05T03:31:43;24.40;99.90
7792;DHT22;3940;49.892;10.886;2022-08-05T03:34:28;24.30;99.90
7792;DHT22;3940;49.892;10.886;2022-08-05T03:37:13;24.30;99.90
7792;DHT22;3940;49.892;10.886;2022-08-05T03:39:58;24.30;99.90
7792;DHT22;3940;49.892;10.886;2022-08-05T03:42:42;24.30;99.90
7792;DHT22;3940;49.892;10.886;2022-08-05T03:45:27;24.10;99.90
7792;DHT22;3940;49.892;10.886;2022-08-05T03:48:11;24.10;99.90
7792;DHT22;3940;49.892;10.886;2022-08-05T03:51:09;24.00;99.90
7792;DHT22;3940;49.892;10.886;2022-08-05T03:56:55;24.10;99.90
7792;DHT22;3940;49.892;10.886;2022-08-05T03:59:45;24.00;99.90
7792;DHT22;3940;49.892;10.886;2022-08-05T04:02:33;24.00;99.90
7792;DHT22;3940;49.892;10.886;2022-08-05T04:05:20;24.00;99.90
7792;DHT22;3940;49.892;10.886;2022-08-05T04:08:08;23.90;99.90
7792;DHT22;3940;49.892;10.886;2022-08-05T04:10:54;24.00;99.90
7792;DHT22;3940;49.892;10.886;2022-08-05T04:13:40;24.00;99.90
7792;DHT22;3940;49.892;10.886;2022-08-05T04:16:25;24.00;99.90
7792;DHT22;3940;49.892;10.886;2022-08-05T04:19:11;24.10;99.90
7792;DHT22;3940;49.892;10.886;2022-08-05T04:21:56;24.10;99.90
7792;DHT22;3940;49.892;10.886;2022-08-05T04:24:43;24.20;99.90
7792;DHT22;3940;49.892;10.886;2022-08-05T04:27:28;24.20;99.90
7792;DHT22;3940;49.892;10.886;2022-08-05T04:30:12;24.20;99.90
7792;DHT22;3940;49.892;10.886;2022-08-05T04:32:57;24.20;99.90
7792;DHT22;3940;49.892;10.886;2022-08-05T04:35:42;24.20;99.90
7792;DHT22;3940;49.892;10.886;2022-08-05T04:38:26;24.20;99.90
7792;DHT22;3940;49.892;10.886;2022-08-05T04:41:12;24.20;99.90
7792;DHT22;3940;49.892;10.886;2022-08-05T04:43:57;24.30;99.90
7792;DHT22;3940;49.892;10.886;2022-08-05T04:46:41;24.30;99.90
7792;DHT22;3940;49.892;10.886;2022-08-05T04:49:26;24.20;99.90
7792;DHT22;3940;49.892;10.886;2022-08-05T04:52:11;24.20;99.90
7792;DHT22;3940;49.892;10.886;2022-08-05T04:54:56;24.30;99.90
7792;DHT22;3940;49.892;10.886;2022-08-05T04:57:43;24.20;99.90
7792;DHT22;3940;49.892;10.886;2022-08-05T05:00:28;24.20;99.90
7792;DHT22;3940;49.892;10.886;2022-08-05T05:03:19;24.30;99.90
7792;DHT22;3940;49.892;10.886;2022-08-05T05:06:04;24.30;99.90
7792;DHT22;3940;49.892;10.886;2022-08-05T05:08:48;24.30;99.90
7792;DHT22;3940;49.892;10.886;2022-08-05T05:11:33;24.30;99.90
7792;DHT22;3940;49.892;10.886;2022-08-05T05:14:18;24.30;99.90
7792;DHT22;3940;49.892;10.886;2022-08-05T05:17:03;24.40;99.90
7792;DHT22;3940;49.892;10.886;2022-08-05T05:19:47;24.10;99.90
7792;DHT22;3940;49.892;10.886;2022-08-05T05:22:32;24.20;99.90
7792;DHT22;3940;49.892;10.886;2022-08-05T05:25:16;24.20;99.90
7792;DHT22;3940;49.892;10.886;2022-08-05T05:28:03;24.30;99.90
7792;DHT22;3940;49.892;10.886;2022-08-05T05:30:49;24.30;99.90
7792;DHT22;3940;49.892;10.886;2022-08-05T05:33:33;24.40;99.90
7792;DHT22;3940;49.892;10.886;2022-08-05T05:36:18;24.40;99.90
7792;DHT22;3940;49.892;10.886;2022-08-05T05:39:03;24.50;99.90
7792;DHT22;3940;49.892;10.886;2022-08-05T05:41:47;24.50;99.90
7792;DHT22;3940;49.892;10.886;2022-08-05T05:44:31;24.50;99.90
7792;DHT22;3940;49.892;10.886;2022-08-05T05:47:16;24.60;99.90
7792;DHT22;3940;49.892;10.886;2022-08-05T05:50:00;24.70;99.90
7792;DHT22;3940;49.892;10.886;2022-08-05T05:52:46;24.80;99.90
7792;DHT22;3940;49.892;10.886;2022-08-05T05:55:31;24.90;99.90
7792;DHT22;3940;49.892;10.886;2022-08-05T05:58:15;24.90;99.90
7792;DHT22;3940;49.892;10.886;2022-08-05T06:01:00;25.00;99.90
7792;DHT22;3940;49.892;10.886;2022-08-05T06:03:44;25.00;99.90
7792;DHT22;3940;49.892;10.886;2022-08-05T06:06:28;25.00;99.90
7792;DHT22;3940;49.892;10.886;2022-08-05T06:09:13;24.90;99.90
7792;DHT22;3940;49.892;10.886;2022-08-05T06:11:57;24.90;99.90
7792;DHT22;3940;49.892;10.886;2022-08-05T06:14:41;24.90;99.90
7792;DHT22;3940;49.892;10.886;2022-08-05T06:17:27;24.90;99.90
7792;DHT22;3940;49.892;10.886;2022-08-05T06:20:14;24.90;99.90
7792;DHT22;3940;49.892;10.886;2022-08-05T06:22:58;24.90;99.90
7792;DHT22;3940;49.892;10.886;2022-08-05T06:25:43;24.90;99.90
7792;DHT22;3940;49.892;10.886;2022-08-05T06:28:28;24.80;99.90
7792;DHT22;3940;49.892;10.886;2022-08-05T06:31:13;24.90;99.90
7792;DHT22;3940;49.892;10.886;2022-08-05T06:33:57;24.90;99.90
7792;DHT22;3940;49.892;10.886;2022-08-05T06:36:41;25.00;99.90
7792;DHT22;3940;49.892;10.886;2022-08-05T06:39:26;25.10;99.90
7792;DHT22;3940;49.892;10.886;2022-08-05T06:42:11;25.10;99.90
7792;DHT22;3940;49.892;10.886;2022-08-05T06:45:00;25.30;99.90
7792;DHT22;3940;49.892;10.886;2022-08-05T06:47:44;25.30;99.90
7792;DHT22;3940;49.892;10.886;2022-08-05T06:50:29;25.40;99.90
7792;DHT22;3940;49.892;10.886;2022-08-05T06:53:13;25.50;99.90
7792;DHT22;3940;49.892;10.886;2022-08-05T06:55:59;25.60;99.90
7792;DHT22;3940;49.892;10.886;2022-08-05T06:58:43;25.70;99.90
7792;DHT22;3940;49.892;10.886;2022-08-05T07:01:27;25.80;99.90
7792;DHT22;3940;49.892;10.886;2022-08-05T07:04:11;25.80;99.90
7792;DHT22;3940;49.892;10.886;2022-08-05T07:06:56;25.90;99.90
7792;DHT22;3940;49.892;10.886;2022-08-05T07:09:41;26.00;99.90
7792;DHT22;3940;49.892;10.886;2022-08-05T07:12:25;26.10;99.90
7792;DHT22;3940;49.892;10.886;2022-08-05T07:15:30;26.30;99.90
7792;DHT22;3940;49.892;10.886;2022-08-05T07:18:28;26.30;99.90
7792;DHT22;3940;49.892;10.886;2022-08-05T07:21:12;26.40;99.90
7792;DHT22;3940;49.892;10.886;2022-08-05T07:23:56;26.50;99.90
7792;DHT22;3940;49.892;10.886;2022-08-05T07:26:40;26.60;99.90
7792;DHT22;3940;49.892;10.886;2022-08-05T07:29:25;26.70;99.90
7792;DHT22;3940;49.892;10.886;2022-08-05T07:32:09;26.80;99.90
7792;DHT22;3940;49.892;10.886;2022-08-05T07:34:55;26.90;99.90
7792;DHT22;3940;49.892;10.886;2022-08-05T07:37:39;27.00;99.90
7792;DHT22;3940;49.892;10.886;2022-08-05T07:40:24;27.00;99.90
7792;DHT22;3940;49.892;10.886;2022-08-05T07:43:10;27.00;99.90
7792;DHT22;3940;49.892;10.886;2022-08-05T07:45:54;27.00;99.90
7792;DHT22;3940;49.892;10.886;2022-08-05T07:48:39;27.10;99.90
7792;DHT22;3940;49.892;10.886;2022-08-05T07:51:24;27.10;99.90
7792;DHT22;3940;49.892;10.886;2022-08-05T07:54:09;27.20;99.90
7792;DHT22;3940;49.892;10.886;2022-08-05T07:56:53;27.30;99.90
7792;DHT22;3940;49.892;10.886;2022-08-05T07:59:38;27.20;99.90
7792;DHT22;3940;49.892;10.886;2022-08-05T08:02:24;27.30;99.90
7792;DHT22;3940;49.892;10.886;2022-08-05T08:05:09;27.40;99.90
7792;DHT22;3940;49.892;10.886;2022-08-05T08:07:54;27.50;99.90
7792;DHT22;3940;49.892;10.886;2022-08-05T08:10:39;27.60;99.90
7792;DHT22;3940;49.892;10.886;2022-08-05T08:13:24;27.60;99.90
7792;DHT22;3940;49.892;10.886;2022-08-05T08:16:08;27.70;99.90
7792;DHT22;3940;49.892;10.886;2022-08-05T08:18:53;27.90;99.90
7792;DHT22;3940;49.892;10.886;2022-08-05T08:21:37;27.90;99.90
7792;DHT22;3940;49.892;10.886;2022-08-05T08:24:21;27.80;99.90
7792;DHT22;3940;49.892;10.886;2022-08-05T08:27:06;28.00;99.90
7792;DHT22;3940;49.892;10.886;2022-08-05T08:29:51;28.10;99.90
7792;DHT22;3940;49.892;10.886;2022-08-05T08:32:35;28.10;99.90
7792;DHT22;3940;49.892;10.886;2022-08-05T08:35:20;28.20;99.90
7792;DHT22;3940;49.892;10.886;2022-08-05T08:38:04;28.20;99.90
7792;DHT22;3940;49.892;10.886;2022-08-05T08:40:48;28.40;99.90
7792;DHT22;3940;49.892;10.886;2022-08-05T08:43:35;28.50;99.90
7792;DHT22;3940;49.892;10.886;2022-08-05T08:46:20;28.60;99.90
7792;DHT22;3940;49.892;10.886;2022-08-05T08:49:06;28.70;99.90
7792;DHT22;3940;49.892;10.886;2022-08-05T08:51:58;28.80;99.90
7792;DHT22;3940;49.892;10.886;2022-08-05T08:54:45;28.90;99.90
7792;DHT22;3940;49.892;10.886;2022-08-05T08:57:33;29.00;99.90
7792;DHT22;3940;49.892;10.886;2022-08-05T09:00:17;28.90;99.90
7792;DHT22;3940;49.892;10.886;2022-08-05T09:03:04;28.90;99.90
7792;DHT22;3940;49.892;10.886;2022-08-05T09:05:49;29.00;99.90
7792;DHT22;3940;49.892;10.886;2022-08-05T09:08:33;29.00;99.90
7792;DHT22;3940;49.892;10.886;2022-08-05T09:11:18;29.20;99.90
7792;DHT22;3940;49.892;10.886;2022-08-05T09:14:03;29.30;99.90
7792;DHT22;3940;49.892;10.886;2022-08-05T09:16:47;29.10;99.90
7792;DHT22;3940;49.892;10.886;2022-08-05T09:19:32;29.30;99.90
7792;DHT22;3940;49.892;10.886;2022-08-05T09:22:16;29.40;99.90
7792;DHT22;3940;49.892;10.886;2022-08-05T09:25:02;29.50;98.50
7792;DHT22;3940;49.892;10.886;2022-08-05T09:27:46;29.50;99.90
7792;DHT22;3940;49.892;10.886;2022-08-05T09:30:33;29.90;99.90
7792;DHT22;3940;49.892;10.886;2022-08-05T09:33:17;30.00;98.00
7792;DHT22;3940;49.892;10.886;2022-08-05T09:36:04;29.90;97.90
7792;DHT22;3940;49.892;10.886;2022-08-05T09:38:58;30.00;96.90
7792;DHT22;3940;49.892;10.886;2022-08-05T09:42:00;30.40;95.40
7792;DHT22;3940;49.892;10.886;2022-08-05T09:44:48;30.30;94.80
7792;DHT22;3940;49.892;10.886;2022-08-05T09:47:33;30.20;95.10
7792;DHT22;3940;49.892;10.886;2022-08-05T09:50:18;30.10;93.30
7792;DHT22;3940;49.892;10.886;2022-08-05T09:53:03;30.00;94.00
7792;DHT22;3940;49.892;10.886;2022-08-05T09:55:52;30.00;93.20
7792;DHT22;3940;49.892;10.886;2022-08-05T09:58:36;30.10;94.30
7792;DHT22;3940;49.892;10.886;2022-08-05T10:01:20;30.50;93.50
7792;DHT22;3940;49.892;10.886;2022-08-05T10:04:08;30.70;90.80
7792;DHT22;3940;49.892;10.886;2022-08-05T10:06:56;30.60;90.70
7792;DHT22;3940;49.892;10.886;2022-08-05T10:09:54;30.60;90.20
7792;DHT22;3940;49.892;10.886;2022-08-05T10:12:45;30.50;91.50
7792;DHT22;3940;49.892;10.886;2022-08-05T10:15:32;30.40;90.70
7792;DHT22;3940;49.892;10.886;2022-08-05T10:18:30;30.40;91.00
7792;DHT22;3940;49.892;10.886;2022-08-05T10:21:15;30.20;90.70
7792;DHT22;3940;49.892;10.886;2022-08-05T10:24:02;30.40;90.70
7792;DHT22;3940;49.892;10.886;2022-08-05T10:26:48;30.60;91.80
7792;DHT22;3940;49.892;10.886;2022-08-05T10:29:35;30.80;91.20
7792;DHT22;3940;49.892;10.886;2022-08-05T10:32:20;31.10;90.50
7792;DHT22;3940;49.892;10.886;2022-08-05T10:35:05;31.20;89.50
7792;DHT22;3940;49.892;10.886;2022-08-05T10:37:50;31.50;87.80
7792;DHT22;3940;49.892;10.886;2022-08-05T10:40:43;31.60;88.10
7792;DHT22;3940;49.892;10.886;2022-08-05T10:43:46;31.60;83.20
7792;DHT22;3940;49.892;10.886;2022-08-05T10:46:49;31.60;82.90
7792;DHT22;3940;49.892;10.886;2022-08-05T10:49:34;31.30;84.00
7792;DHT22;3940;49.892;10.886;2022-08-05T10:52:40;31.20;85.50
7792;DHT22;3940;49.892;10.886;2022-08-05T10:55:25;31.80;84.30
7792;DHT22;3940;49.892;10.886;2022-08-05T10:58:11;32.10;82.90
7792;DHT22;3940;49.892;10.886;2022-08-05T11:00:56;32.00;80.10
7792;DHT22;3940;49.892;10.886;2022-08-05T11:03:59;32.00;82.90
7792;DHT22;3940;49.892;10.886;2022-08-05T11:07:04;32.30;82.10
7792;DHT22;3940;49.892;10.886;2022-08-05T11:09:51;32.60;82.60
7792;DHT22;3940;49.892;10.886;2022-08-05T11:12:41;32.50;76.70
7792;DHT22;3940;49.892;10.886;2022-08-05T11:15:36;31.70;78.10
7792;DHT22;3940;49.892;10.886;2022-08-05T11:18:28;31.10;78.90
7792;DHT22;3940;49.892;10.886;2022-08-05T11:21:30;30.70;83.80
7792;DHT22;3940;49.892;10.886;2022-08-05T11:24:14;30.80;85.60
7792;DHT22;3940;49.892;10.886;2022-08-05T11:30:13;31.90;85.70
7792;DHT22;3940;49.892;10.886;2022-08-05T11:36:15;33.10;79.80
7792;DHT22;3940;49.892;10.886;2022-08-05T11:39:01;33.50;77.40
7792;DHT22;3940;49.892;10.886;2022-08-05T11:41:50;32.60;78.30
7792;DHT22;3940;49.892;10.886;2022-08-05T11:44:39;31.80;78.50
7792;DHT22;3940;49.892;10.886;2022-08-05T11:47:25;32.70;77.60
7792;DHT22;3940;49.892;10.886;2022-08-05T11:50:10;32.80;75.20
7792;DHT22;3940;49.892;10.886;2022-08-05T11:52:55;32.40;79.00
7792;DHT22;3940;49.892;10.886;2022-08-05T11:55:56;33.50;76.80
7792;DHT22;3940;49.892;10.886;2022-08-05T11:58:42;34.60;70.40
7792;DHT22;3940;49.892;10.886;2022-08-05T12:01:27;35.10;68.70
7792;DHT22;3940;49.892;10.886;2022-08-05T12:04:12;35.50;69.20
7792;DHT22;3940;49.892;10.886;2022-08-05T12:06:58;35.40;65.20
7792;DHT22;3940;49.892;10.886;2022-08-05T12:09:47;33.80;67.20
7792;DHT22;3940;49.892;10.886;2022-08-05T12:12:32;35.40;67.70
7792;DHT22;3940;49.892;10.886;2022-08-05T12:15:20;36.20;61.80
7792;DHT22;3940;49.892;10.886;2022-08-05T12:18:05;36.50;61.20
7792;DHT22;3940;49.892;10.886;2022-08-05T12:20:49;36.60;60.10
7792;DHT22;3940;49.892;10.886;2022-08-05T12:23:34;36.80;60.80
7792;DHT22;3940;49.892;10.886;2022-08-05T12:26:21;36.50;59.80
7792;DHT22;3940;49.892;10.886;2022-08-05T12:29:09;36.50;58.00
7792;DHT22;3940;49.892;10.886;2022-08-05T12:31:59;36.70;57.70
7792;DHT22;3940;49.892;10.886;2022-08-05T12:34:44;36.80;57.10
7792;DHT22;3940;49.892;10.886;2022-08-05T12:37:29;36.70;57.10
7792;DHT22;3940;49.892;10.886;2022-08-05T12:40:17;36.50;56.60
7792;DHT22;3940;49.892;10.886;2022-08-05T12:43:08;36.90;56.20
7792;DHT22;3940;49.892;10.886;2022-08-05T12:45:55;36.60;56.30
7792;DHT22;3940;49.892;10.886;2022-08-05T12:48:41;35.60;58.20
7792;DHT22;3940;49.892;10.886;2022-08-05T12:51:26;35.80;58.30
7792;DHT22;3940;49.892;10.886;2022-08-05T12:54:21;36.60;57.20
7792;DHT22;3940;49.892;10.886;2022-08-05T12:57:07;36.90;56.80
7792;DHT22;3940;49.892;10.886;2022-08-05T12:59:54;37.60;56.50
7792;DHT22;3940;49.892;10.886;2022-08-05T13:03:00;37.90;57.90
7792;DHT22;3940;49.892;10.886;2022-08-05T13:05:46;38.10;57.60
7792;DHT22;3940;49.892;10.886;2022-08-05T13:08:31;38.30;56.90
7792;DHT22;3940;49.892;10.886;2022-08-05T13:11:20;38.30;57.20
7792;DHT22;3940;49.892;10.886;2022-08-05T13:14:23;37.70;57.90
7792;DHT22;3940;49.892;10.886;2022-08-05T13:17:19;37.40;58.70
7792;DHT22;3940;49.892;10.886;2022-08-05T13:20:14;38.20;57.00
7792;DHT22;3940;49.892;10.886;2022-08-05T13:22:59;38.40;56.10
7792;DHT22;3940;49.892;10.886;2022-08-05T13:25:43;37.50;55.70
7792;DHT22;3940;49.892;10.886;2022-08-05T13:28:31;38.00;58.00
7792;DHT22;3940;49.892;10.886;2022-08-05T13:31:30;38.20;56.20
7792;DHT22;3940;49.892;10.886;2022-08-05T13:34:17;37.90;56.80
7792;DHT22;3940;49.892;10.886;2022-08-05T13:37:01;37.90;56.30
7792;DHT22;3940;49.892;10.886;2022-08-05T13:39:47;37.10;58.00
7792;DHT22;3940;49.892;10.886;2022-08-05T13:42:53;37.30;58.50
7792;DHT22;3940;49.892;10.886;2022-08-05T13:45:59;37.40;57.00
7792;DHT22;3940;49.892;10.886;2022-08-05T13:48:46;37.10;57.30
7792;DHT22;3940;49.892;10.886;2022-08-05T13:51:32;36.50;57.60
7792;DHT22;3940;49.892;10.886;2022-08-05T13:54:17;36.30;58.70
7792;DHT22;3940;49.892;10.886;2022-08-05T13:57:04;36.40;57.30
7792;DHT22;3940;49.892;10.886;2022-08-05T13:59:50;36.30;58.90
7792;DHT22;3940;49.892;10.886;2022-08-05T14:02:34;36.70;56.50
7792;DHT22;3940;49.892;10.886;2022-08-05T14:05:21;36.70;57.20
7792;DHT22;3940;49.892;10.886;2022-08-05T14:08:08;36.80;56.40
7792;DHT22;3940;49.892;10.886;2022-08-05T14:10:53;36.80;55.20
7792;DHT22;3940;49.892;10.886;2022-08-05T14:13:38;36.70;55.30
7792;DHT22;3940;49.892;10.886;2022-08-05T14:16:44;36.60;55.20
7792;DHT22;3940;49.892;10.886;2022-08-05T14:19:48;36.70;54.50
7792;DHT22;3940;49.892;10.886;2022-08-05T14:22:33;36.70;55.30
7792;DHT22;3940;49.892;10.886;2022-08-05T14:25:40;36.50;55.10
7792;DHT22;3940;49.892;10.886;2022-08-05T14:29:07;36.50;55.10
7792;DHT22;3940;49.892;10.886;2022-08-05T14:31:55;36.40;54.90
7792;DHT22;3940;49.892;10.886;2022-08-05T14:34:40;36.20;54.70
7792;DHT22;3940;49.892;10.886;2022-08-05T14:37:26;36.20;55.20
7792;DHT22;3940;49.892;10.886;2022-08-05T14:40:11;36.10;55.90
7792;DHT22;3940;49.892;10.886;2022-08-05T14:42:55;35.60;55.60
7792;DHT22;3940;49.892;10.886;2022-08-05T14:45:40;35.20;56.60
7792;DHT22;3940;49.892;10.886;2022-08-05T14:48:27;35.10;57.40
7792;DHT22;3940;49.892;10.886;2022-08-05T14:51:11;35.10;57.30
7792;DHT22;3940;49.892;10.886;2022-08-05T14:53:59;35.10;56.80
7792;DHT22;3940;49.892;10.886;2022-08-05T14:56:43;35.40;57.40
7792;DHT22;3940;49.892;10.886;2022-08-05T14:59:28;35.50;58.50
7792;DHT22;3940;49.892;10.886;2022-08-05T15:02:12;35.60;56.20
7792;DHT22;3940;49.892;10.886;2022-08-05T15:04:57;35.50;57.50
7792;DHT22;3940;49.892;10.886;2022-08-05T15:07:42;35.70;58.30
7792;DHT22;3940;49.892;10.886;2022-08-05T15:10:27;35.70;57.40
7792;DHT22;3940;49.892;10.886;2022-08-05T15:13:12;35.50;57.70
7792;DHT22;3940;49.892;10.886;2022-08-05T15:15:56;35.50;57.70
7792;DHT22;3940;49.892;10.886;2022-08-05T15:18:41;35.50;57.70
7792;DHT22;3940;49.892;10.886;2022-08-05T15:21:29;35.40;58.60
7792;DHT22;3940;49.892;10.886;2022-08-05T15:24:14;35.00;59.90
7792;DHT22;3940;49.892;10.886;2022-08-05T15:26:58;34.80;59.30
7792;DHT22;3940;49.892;10.886;2022-08-05T15:29:42;34.80;59.70
7792;DHT22;3940;49.892;10.886;2022-08-05T15:32:26;35.00;60.00
7792;DHT22;3940;49.892;10.886;2022-08-05T15:35:11;34.80;59.30
7792;DHT22;3940;49.892;10.886;2022-08-05T15:37:56;34.70;60.20
7792;DHT22;3940;49.892;10.886;2022-08-05T15:40:44;34.60;62.30
7792;DHT22;3940;49.892;10.886;2022-08-05T15:43:28;34.40;61.70
7792;DHT22;3940;49.892;10.886;2022-08-05T15:46:12;34.30;62.00
7792;DHT22;3940;49.892;10.886;2022-08-05T15:48:57;34.20;61.00
7792;DHT22;3940;49.892;10.886;2022-08-05T15:51:41;33.90;62.50
7792;DHT22;3940;49.892;10.886;2022-08-05T15:54:25;33.80;62.80
7792;DHT22;3940;49.892;10.886;2022-08-05T15:57:10;33.60;64.20
7792;DHT22;3940;49.892;10.886;2022-08-05T15:59:55;33.40;64.00
7792;DHT22;3940;49.892;10.886;2022-08-05T16:02:39;33.10;64.20
7792;DHT22;3940;49.892;10.886;2022-08-05T16:05:23;33.00;66.50
7792;DHT22;3940;49.892;10.886;2022-08-05T16:08:07;32.60;68.50
7792;DHT22;3940;49.892;10.886;2022-08-05T16:10:52;32.70;68.00
7792;DHT22;3940;49.892;10.886;2022-08-05T16:13:37;32.60;69.20
7792;DHT22;3940;49.892;10.886;2022-08-05T16:16:21;32.60;68.60
7792;DHT22;3940;49.892;10.886;2022-08-05T16:19:05;32.40;69.60
7792;DHT22;3940;49.892;10.886;2022-08-05T16:21:50;32.40;69.30
7792;DHT22;3940;49.892;10.886;2022-08-05T16:24:34;32.20;70.60
7792;DHT22;3940;49.892;10.886;2022-08-05T16:27:19;32.20;72.40
7792;DHT22;3940;49.892;10.886;2022-08-05T16:30:04;32.30;71.10
7792;DHT22;3940;49.892;10.886;2022-08-05T16:32:48;32.30;70.70
7792;DHT22;3940;49.892;10.886;2022-08-05T16:35:32;32.50;71.00
7792;DHT22;3940;49.892;10.886;2022-08-05T16:38:17;32.60;71.60
7792;DHT22;3940;49.892;10.886;2022-08-05T16:41:03;32.40;71.30
7792;DHT22;3940;49.892;10.886;2022-08-05T16:43:47;32.40;71.90
7792;DHT22;3940;49.892;10.886;2022-08-05T16:46:32;32.20;72.60
7792;DHT22;3940;49.892;10.886;2022-08-05T16:49:16;32.10;73.10
7792;DHT22;3940;49.892;10.886;2022-08-05T16:52:05;32.10;73.80
7792;DHT22;3940;49.892;10.886;2022-08-05T16:54:50;31.90;74.80
7792;DHT22;3940;49.892;10.886;2022-08-05T16:57:35;31.50;75.90
7792;DHT22;3940;49.892;10.886;2022-08-05T17:00:19;31.20;76.60
7792;DHT22;3940;49.892;10.886;2022-08-05T17:03:04;30.90;76.90
7792;DHT22;3940;49.892;10.886;2022-08-05T17:05:49;30.70;79.00
7792;DHT22;3940;49.892;10.886;2022-08-05T17:08:34;30.40;79.20
7792;DHT22;3940;49.892;10.886;2022-08-05T17:11:18;30.30;79.50
7792;DHT22;3940;49.892;10.886;2022-08-05T17:14:02;30.30;80.90
7792;DHT22;3940;49.892;10.886;2022-08-05T17:16:47;30.20;80.90
7792;DHT22;3940;49.892;10.886;2022-08-05T17:19:31;30.50;81.90
7792;DHT22;3940;49.892;10.886;2022-08-05T17:22:15;30.60;80.40
7792;DHT22;3940;49.892;10.886;2022-08-05T17:25:00;30.60;80.80
7792;DHT22;3940;49.892;10.886;2022-08-05T17:27:45;30.50;81.00
7792;DHT22;3940;49.892;10.886;2022-08-05T17:30:29;30.30;81.30
7792;DHT22;3940;49.892;10.886;2022-08-05T17:33:14;30.20;82.70
7792;DHT22;3940;49.892;10.886;2022-08-05T17:35:58;30.30;82.50
7792;DHT22;3940;49.892;10.886;2022-08-05T17:38:43;30.30;82.40
7792;DHT22;3940;49.892;10.886;2022-08-05T17:41:27;30.30;82.70
7792;DHT22;3940;49.892;10.886;2022-08-05T17:44:11;30.20;83.70
7792;DHT22;3940;49.892;10.886;2022-08-05T17:46:56;30.20;83.70
7792;DHT22;3940;49.892;10.886;2022-08-05T17:49:41;30.20;84.60
7792;DHT22;3940;49.892;10.886;2022-08-05T17:52:26;30.10;85.70
7792;DHT22;3940;49.892;10.886;2022-08-05T17:55:13;29.80;86.10
7792;DHT22;3940;49.892;10.886;2022-08-05T17:57:57;29.60;88.30
7792;DHT22;3940;49.892;10.886;2022-08-05T18:00:45;29.40;90.00